createdAt,value
2022-08-09T00:01:01.026Z,100559.94
2022-08-09T00:04:33.870Z,100561.03
2022-08-09T00:07:55.620Z,100549.44
2022-08-09T00:11:24.602Z,100542.91
2022-08-09T00:14:47.508Z,100516.19
2022-08-09T00:18:12.610Z,100515.31
2022-08-09T00:21:35.585Z,100491.81
2022-08-09T00:24:56.596Z,100479.00
2022-08-09T00:28:18.579Z,100483.28
2022-08-09T00:31:59.106Z,100486.66
2022-08-09T00:35:13.655Z,100483.28
2022-08-09T00:38:35.612Z,100475.81
2022-08-09T00:44:13.719Z,100472.28
2022-08-09T00:45:38.590Z,100464.31
2022-08-09T00:49:13.676Z,100461.44
2022-08-09T00:52:35.941Z,100451.69
2022-08-09T00:56:04.027Z,100456.13
2022-08-09T00:59:40.511Z,100459.56
2022-08-09T01:03:11.608Z,100451.69
2022-08-09T01:06:54.867Z,100460.81
2022-08-09T01:10:42.598Z,100485.69
2022-08-09T01:14:23.677Z,100487.09
2022-08-09T01:17:49.634Z,100486.16
2022-08-09T01:21:44.623Z,100492.31
2022-08-09T01:25:48.932Z,100499.59
2022-08-09T01:29:15.467Z,100499.59
2022-08-09T01:32:45.618Z,100502.03
2022-08-09T01:36:20.620Z,100512.53
2022-08-09T01:39:44.726Z,100511.28
2022-08-09T01:43:07.641Z,100512.47
2022-08-09T01:46:29.589Z,100507.59
2022-08-09T01:49:54.804Z,100508.16
2022-08-09T01:53:19.267Z,100505.91
2022-08-09T01:56:42.603Z,100507.16
2022-08-09T02:00:34.468Z,100511.22
2022-08-09T02:03:53.632Z,100508.66
2022-08-09T02:08:35.299Z,100501.66
2022-08-09T02:10:57.629Z,100509.78
2022-08-09T02:14:39.655Z,100522.34
2022-08-09T02:18:10.545Z,100526.84
2022-08-09T02:21:34.223Z,100524.72
2022-08-09T02:25:04.657Z,100512.84
2022-08-09T02:29:00.049Z,100523.53
2022-08-09T02:32:23.709Z,100526.56
2022-08-09T02:36:03.054Z,100533.47
2022-08-09T02:39:34.080Z,100531.09
2022-08-09T02:43:03.619Z,100541.59
2022-08-09T02:46:30.643Z,100537.78
2022-08-09T02:50:02.307Z,100536.13
2022-08-09T02:53:29.619Z,100542.44
2022-08-09T02:56:53.921Z,100547.13
2022-08-09T03:00:25.189Z,100549.44
2022-08-09T03:04:17.390Z,100553.09
2022-08-09T03:07:31.611Z,100555.75
2022-08-09T03:10:55.636Z,100561.97
2022-08-09T03:14:17.668Z,100567.09
2022-08-09T03:17:39.643Z,100567.19
2022-08-09T03:21:02.656Z,100558.97
2022-08-09T03:24:31.511Z,100560.69
2022-08-09T03:28:11.105Z,100546.44
2022-08-09T03:31:33.740Z,100544.63
2022-08-09T03:35:04.995Z,100555.00
2022-08-09T03:38:44.877Z,100558.47
2022-08-09T03:42:06.750Z,100554.44
2022-08-09T03:46:03.831Z,100545.16
2022-08-09T03:49:12.642Z,100534.25
2022-08-09T03:52:39.650Z,100536.69
2022-08-09T03:56:03.636Z,100540.56
2022-08-09T03:59:27.235Z,100542.19
2022-08-09T04:03:07.687Z,100548.94
2022-08-09T04:06:32.698Z,100550.59
2022-08-09T04:09:54.630Z,100556.25
2022-08-09T04:13:19.598Z,100555.84
2022-08-09T04:17:17.710Z,100552.22
2022-08-09T04:20:38.629Z,100557.84
2022-08-09T04:23:59.645Z,100546.13
2022-08-09T04:27:22.072Z,100542.25
2022-08-09T04:30:44.806Z,100540.97
2022-08-09T04:34:05.668Z,100544.47
2022-08-09T04:37:45.633Z,100542.59
2022-08-09T04:41:11.877Z,100545.19
2022-08-09T04:44:32.656Z,100551.09
2022-08-09T04:48:00.940Z,100536.94
2022-08-09T04:51:24.716Z,100545.50
2022-08-09T04:54:46.821Z,100547.91
2022-08-09T04:58:09.314Z,100544.31
2022-08-09T05:01:30.677Z,100537.31
2022-08-09T05:04:55.782Z,100537.53
2022-08-09T05:08:16.656Z,100529.34
2022-08-09T05:11:37.673Z,100518.47
2022-08-09T05:14:58.667Z,100518.09
2022-08-09T05:18:50.702Z,100518.91
2022-08-09T05:22:01.912Z,100527.81
2022-08-09T05:25:22.774Z,100519.59
2022-08-09T05:28:43.674Z,100511.47
2022-08-09T05:32:08.672Z,100511.25
2022-08-09T05:35:30.717Z,100516.06
2022-08-09T05:38:59.674Z,100521.03
2022-08-09T05:42:31.233Z,100524.19
2022-08-09T05:45:55.987Z,100519.91
2022-08-09T05:50:25.041Z,100515.34
2022-08-09T05:52:59.680Z,100518.91
2022-08-09T05:56:20.697Z,100530.00
2022-08-09T05:59:46.680Z,100526.44
2022-08-09T06:03:19.825Z,100527.91
2022-08-09T06:06:45.213Z,100524.63
2022-08-09T06:10:15.888Z,100505.84
2022-08-09T06:13:39.709Z,100511.88
2022-08-09T06:17:05.018Z,100515.41
2022-08-09T06:20:30.712Z,100523.47
2022-08-09T06:23:57.460Z,100511.72
2022-08-09T06:27:21.676Z,100512.84
2022-08-09T06:30:43.679Z,100507.09
2022-08-09T06:34:04.720Z,100508.19
2022-08-09T06:37:28.948Z,100510.75
2022-08-09T06:40:49.855Z,100506.78
2022-08-09T06:44:18.275Z,100511.31
2022-08-09T06:47:41.791Z,100510.19
2022-08-09T06:51:04.487Z,100509.97
2022-08-09T06:54:26.202Z,100505.31
2022-08-09T06:58:03.526Z,100505.50
2022-08-09T07:01:35.751Z,100502.16
2022-08-09T07:05:05.751Z,100515.63
2022-08-09T07:08:27.714Z,100509.28
2022-08-09T07:11:53.514Z,100517.44
2022-08-09T07:16:36.410Z,100513.63
2022-08-09T07:18:50.097Z,100518.50
2022-08-09T07:22:10.939Z,100512.59
2022-08-09T07:25:32.733Z,100525.38
2022-08-09T07:29:12.366Z,100528.91
2022-08-09T07:32:35.075Z,100529.31
2022-08-09T07:35:56.699Z,100531.13
2022-08-09T07:39:20.454Z,100531.22
2022-08-09T07:43:16.433Z,100537.78
2022-08-09T07:46:37.735Z,100535.88
2022-08-09T07:50:08.171Z,100528.31
2022-08-09T07:54:01.533Z,100528.03
2022-08-09T07:57:11.858Z,100520.03
2022-08-09T08:00:35.772Z,100508.16
2022-08-09T08:03:57.743Z,100512.41
2022-08-09T08:08:44.262Z,100528.44
2022-08-09T08:11:03.488Z,100543.22
2022-08-09T08:14:42.750Z,100538.94
2022-08-09T08:18:06.789Z,100528.56
2022-08-09T08:21:27.711Z,100540.66
2022-08-09T08:24:51.014Z,100546.25
2022-08-09T08:28:14.472Z,100544.38
2022-08-09T08:31:56.422Z,100543.75
2022-08-09T08:35:18.268Z,100548.09
2022-08-09T08:38:39.813Z,100546.59
2022-08-09T08:42:01.725Z,100543.44
2022-08-09T08:49:01.727Z,100548.66
2022-08-09T08:52:58.087Z,100547.84
2022-08-09T08:56:03.788Z,100553.47
2022-08-09T08:59:28.143Z,100551.84
2022-08-09T09:03:22.674Z,100543.41
2022-08-09T09:06:56.743Z,100552.50
2022-08-09T09:10:21.735Z,100548.16
2022-08-09T09:13:57.986Z,100557.28
2022-08-09T09:17:18.746Z,100549.47
2022-08-09T09:20:47.778Z,100545.75
2022-08-09T09:24:10.302Z,100544.38
2022-08-09T09:28:06.017Z,100546.06
2022-08-09T09:32:04.085Z,100535.47
2022-08-09T09:35:19.726Z,100532.44
2022-08-09T09:38:53.740Z,100531.91
2022-08-09T09:42:17.770Z,100533.28
2022-08-09T09:45:56.771Z,100524.44
2022-08-09T09:49:56.687Z,100515.84
2022-08-09T09:53:10.566Z,100527.56
2022-08-09T09:56:33.620Z,100520.63
2022-08-09T09:59:55.760Z,100525.59
2022-08-09T10:03:22.276Z,100524.34
2022-08-09T10:06:54.470Z,100532.00
2022-08-09T10:10:18.714Z,100517.81
2022-08-09T10:13:51.786Z,100519.69
2022-08-09T10:17:40.003Z,100501.88
2022-08-09T10:20:46.746Z,100518.94
2022-08-09T10:24:09.748Z,100517.03
2022-08-09T10:27:44.948Z,100517.00
2022-08-09T10:34:59.761Z,100518.66
2022-08-09T10:38:39.652Z,100508.66
2022-08-09T10:42:03.672Z,100513.38
2022-08-09T10:45:31.493Z,100523.03
2022-08-09T10:49:10.489Z,100531.78
2022-08-09T10:52:44.922Z,100526.56
2022-08-09T10:56:23.235Z,100527.38
2022-08-09T10:59:57.360Z,100526.38
2022-08-09T11:03:50.214Z,100533.00
2022-08-09T11:07:11.878Z,100530.19
2022-08-09T11:11:00.919Z,100539.44
2022-08-09T11:14:44.064Z,100528.25
2022-08-09T11:18:06.797Z,100534.75
2022-08-09T11:22:10.504Z,100528.34
2022-08-09T11:25:48.517Z,100525.06
2022-08-09T11:29:09.784Z,100521.19
2022-08-09T11:33:12.904Z,100521.78
2022-08-09T11:36:36.941Z,100529.91
2022-08-09T11:40:19.862Z,100516.47
2022-08-09T11:43:42.788Z,100520.13
2022-08-09T11:47:14.547Z,100526.56
2022-08-09T11:50:54.794Z,100517.81
2022-08-09T11:54:33.218Z,100511.88
2022-08-09T11:58:02.000Z,100523.16
2022-08-09T12:01:37.403Z,100516.91
2022-08-09T12:05:06.853Z,100514.81
2022-08-09T12:08:39.846Z,100509.84
2022-08-09T12:12:28.800Z,100515.09
2022-08-09T12:15:52.328Z,100517.41
2022-08-09T12:19:14.839Z,100516.06
2022-08-09T12:22:37.792Z,100513.81
2022-08-09T12:26:06.807Z,100510.56
2022-08-09T12:29:43.847Z,100520.63
2022-08-09T12:33:16.823Z,100503.88
2022-08-09T12:36:39.840Z,100508.19
2022-08-09T12:40:20.867Z,100505.50
2022-08-09T12:44:06.463Z,100509.94
2022-08-09T12:47:23.838Z,100503.00
2022-08-09T12:50:45.823Z,100497.44
2022-08-09T12:54:16.844Z,100509.50
2022-08-09T12:57:55.819Z,100500.38
2022-08-09T13:01:42.870Z,100502.19
2022-08-09T13:05:13.825Z,100495.88
2022-08-09T13:08:40.442Z,100490.44
2022-08-09T13:12:04.827Z,100491.88
2022-08-09T13:15:25.799Z,100484.56
2022-08-09T13:19:03.857Z,100485.81
2022-08-09T13:23:01.134Z,100488.56
2022-08-09T13:26:14.838Z,100485.41
2022-08-09T13:30:02.647Z,100489.41
2022-08-09T13:33:18.207Z,100478.38
2022-08-09T13:36:43.173Z,100488.59
2022-08-09T13:41:51.144Z,100478.50
2022-08-09T13:43:46.866Z,100483.03
2022-08-09T13:47:17.987Z,100481.47
2022-08-09T13:50:48.887Z,100487.44
2022-08-09T13:54:13.453Z,100478.19
2022-08-09T13:57:36.482Z,100483.59
2022-08-09T14:00:59.858Z,100481.75
2022-08-09T14:04:23.997Z,100479.88
2022-08-09T14:07:47.844Z,100477.16
2022-08-09T14:11:15.966Z,100475.63
2022-08-09T14:14:36.878Z,100477.03
2022-08-09T14:18:19.988Z,100472.94
2022-08-09T14:21:38.848Z,100486.06
2022-08-09T14:24:59.875Z,100491.56
2022-08-09T14:28:20.942Z,100490.63
2022-08-09T14:31:51.979Z,100483.66
2022-08-09T14:35:14.880Z,100490.06
2022-08-09T14:38:35.857Z,100489.00
2022-08-09T14:41:59.878Z,100500.16
2022-08-09T14:46:54.311Z,100503.13
2022-08-09T14:49:03.886Z,100504.66
2022-08-09T14:52:25.410Z,100508.81
2022-08-09T14:55:50.064Z,100506.28
2022-08-09T14:59:14.504Z,100508.00
2022-08-09T15:02:36.104Z,100512.66
2022-08-09T15:06:04.875Z,100517.75
2022-08-09T15:10:04.004Z,100511.44
2022-08-09T15:13:10.874Z,100505.50
2022-08-09T15:16:31.935Z,100511.28
2022-08-09T15:19:54.647Z,100517.25
2022-08-09T15:24:01.797Z,100507.69
2022-08-09T15:27:01.864Z,100507.50
2022-08-09T15:30:48.656Z,100506.03
2022-08-09T15:34:19.565Z,100497.19
2022-08-09T15:37:57.294Z,100497.88
2022-08-09T15:41:22.355Z,100493.53
2022-08-09T15:44:42.853Z,100494.84
2022-08-09T15:48:17.843Z,100484.09
2022-08-09T15:52:03.738Z,100485.13
2022-08-09T15:55:30.905Z,100490.28
2022-08-09T15:59:11.901Z,100489.03
2022-08-09T16:02:32.899Z,100495.97
2022-08-09T16:05:55.320Z,100492.09
2022-08-09T16:09:32.584Z,100495.75
2022-08-09T16:13:04.912Z,100498.63
2022-08-09T16:16:41.770Z,100508.78
2022-08-09T16:20:09.092Z,100500.41
2022-08-09T16:23:29.868Z,100511.06
2022-08-09T16:26:51.880Z,100511.59
2022-08-09T16:30:15.010Z,100523.84
2022-08-09T16:33:38.886Z,100526.78
2022-08-09T16:36:59.884Z,100523.41
2022-08-09T16:40:40.269Z,100534.84
2022-08-09T16:44:01.865Z,100532.63
2022-08-09T16:48:39.466Z,100524.75
2022-08-09T16:51:07.901Z,100532.50
2022-08-09T16:54:34.775Z,100531.94
2022-08-09T16:58:09.349Z,100533.41
2022-08-09T17:01:33.917Z,100539.94
2022-08-09T17:04:59.001Z,100541.03
2022-08-09T17:08:42.777Z,100543.09
2022-08-09T17:12:01.938Z,100545.63
2022-08-09T17:15:58.697Z,100548.50
2022-08-09T17:19:10.908Z,100548.19
2022-08-09T17:22:32.889Z,100549.47
2022-08-09T17:25:54.910Z,100553.53
2022-08-09T17:29:20.259Z,100546.88
2022-08-09T17:32:45.435Z,100543.06
2022-08-09T17:36:10.974Z,100545.13
2022-08-09T17:39:52.191Z,100552.06
2022-08-09T17:43:34.138Z,100554.94
2022-08-09T17:46:57.755Z,100558.59
2022-08-09T17:50:36.426Z,100556.78
2022-08-09T17:53:57.908Z,100551.94
2022-08-09T17:57:24.406Z,100554.19
2022-08-09T18:01:01.026Z,100555.22
2022-08-09T18:04:22.976Z,100552.16
2022-08-09T18:07:48.632Z,100549.53
2022-08-09T18:11:09.910Z,100543.25
2022-08-09T18:14:36.946Z,100546.50
2022-08-09T18:18:26.067Z,100545.50
2022-08-09T18:21:52.909Z,100546.09
2022-08-09T18:25:14.933Z,100544.88
2022-08-09T18:30:35.288Z,100548.16
2022-08-09T18:32:20.958Z,100545.28
2022-08-09T18:35:59.556Z,100557.47
2022-08-09T18:39:20.995Z,100555.84
2022-08-09T18:42:43.855Z,100559.47
2022-08-09T18:46:46.856Z,100558.47
2022-08-09T18:49:46.252Z,100558.88
2022-08-09T18:53:13.391Z,100560.91
2022-08-09T18:56:34.976Z,100558.66
2022-08-09T19:00:01.639Z,100551.78
2022-08-09T19:03:24.942Z,100550.34
2022-08-09T19:06:50.424Z,100547.09
2022-08-09T19:10:17.592Z,100548.34
2022-08-09T19:13:51.401Z,100551.31
2022-08-09T19:17:12.989Z,100548.47
2022-08-09T19:20:39.223Z,100554.13
2022-08-09T19:24:37.136Z,100550.31
2022-08-09T19:27:41.936Z,100549.69
2022-08-09T19:31:02.938Z,100547.84
2022-08-09T19:34:41.430Z,100546.41
2022-08-09T19:38:04.951Z,100545.59
2022-08-09T19:41:32.862Z,100543.16
2022-08-09T19:44:55.970Z,100549.22
2022-08-09T19:48:16.963Z,100545.16
2022-08-09T19:51:57.979Z,100547.16
2022-08-09T19:55:19.537Z,100551.44
2022-08-09T19:58:56.382Z,100544.31
2022-08-09T20:04:16.614Z,100538.06
2022-08-09T20:06:03.205Z,100539.06
2022-08-09T20:09:44.403Z,100537.47
2022-08-09T20:13:05.032Z,100541.13
2022-08-09T20:16:33.209Z,100540.28
2022-08-09T20:19:59.927Z,100538.66
2022-08-09T20:23:22.885Z,100543.13
2022-08-09T20:26:44.972Z,100543.50
2022-08-09T20:30:07.948Z,100542.69
2022-08-09T20:33:38.946Z,100540.25
2022-08-09T20:37:01.960Z,100550.56
2022-08-09T20:40:26.647Z,100550.78
2022-08-09T20:43:48.959Z,100559.84
2022-08-09T20:47:45.542Z,100559.84
2022-08-09T20:51:01.303Z,100560.88
2022-08-09T20:54:24.737Z,100552.38
2022-08-09T20:58:05.663Z,100563.25
2022-08-09T21:01:35.443Z,100559.41
2022-08-09T21:05:57.264Z,100557.59
2022-08-09T21:08:49.953Z,100560.78
2022-08-09T21:15:34.843Z,100552.22
2022-08-09T21:20:05.188Z,100557.69
2022-08-09T21:22:39.506Z,100555.47
2022-08-09T21:26:00.960Z,100561.13
2022-08-09T21:29:22.902Z,100561.50
2022-08-09T21:32:43.988Z,100556.59
2022-08-09T21:36:05.972Z,100559.84
2022-08-09T21:39:42.106Z,100559.63
2022-08-09T21:43:03.968Z,100559.00
2022-08-09T21:46:27.014Z,100548.69
2022-08-09T21:49:51.974Z,100552.13
2022-08-09T21:53:15.626Z,100545.44
2022-08-09T21:56:54.657Z,100545.63
2022-08-09T22:00:16.987Z,100544.00
2022-08-09T22:03:48.539Z,100537.50
2022-08-09T22:07:35.051Z,100529.63
2022-08-09T22:12:05.222Z,100527.97
2022-08-09T22:14:43.028Z,100530.38
2022-08-09T22:18:05.016Z,100523.69
2022-08-09T22:21:45.259Z,100533.75
2022-08-09T22:26:08.311Z,100537.78
2022-08-09T22:28:54.212Z,100540.59
2022-08-09T22:32:08.007Z,100543.03
2022-08-09T22:36:02.323Z,100541.41
2022-08-09T22:39:55.780Z,100547.03
2022-08-09T22:43:08.675Z,100544.22
2022-08-09T22:48:13.137Z,100542.22
2022-08-09T22:50:19.002Z,100535.34
2022-08-09T22:53:58.726Z,100536.34
2022-08-09T22:57:21.017Z,100535.34
2022-08-09T23:00:42.023Z,100531.06
2022-08-09T23:04:07.244Z,100537.56
2022-08-09T23:08:29.197Z,100544.00
2022-08-09T23:11:33.066Z,100531.81
2022-08-09T23:14:54.196Z,100539.25
2022-08-09T23:18:15.041Z,100532.75
2022-08-09T23:21:37.877Z,100532.97
2022-08-09T23:25:00.012Z,100534.34
2022-08-09T23:28:21.010Z,100529.91
2022-08-09T23:31:35.013Z,100536.53
2022-08-09T23:34:56.013Z,100540.34
2022-08-09T23:38:17.003Z,100541.53
2022-08-09T23:41:32.013Z,100529.81
2022-08-09T23:44:53.018Z,100542.94
2022-08-09T23:48:14.009Z,100550.97
2022-08-09T23:51:35.004Z,100565.09
2022-08-09T23:54:56.000Z,100570.56
2022-08-09T23:58:24.340Z,100563.66
